Aérodrome :
LOGIN :

S'inscrire | Disclaimer

   EN    FR    IT 

 










Légende :    VFR   VFR Marginal   IFR   IFR Intensif   IFR Très Intensif
Visi : 
Plafond : 
>= 8 km
>= 3000ft
5 à 8 km
1000 à 3000 ft
1500m à 5 km
500 à 1000 ft
800 à 1500m
200 à 500 ft
< 800m
< 200 ft
Symboles :   Orages  Brouillard  Fortes neiges  Fortes précipitations  Vent > 20 kt
SIGMETs :   Divers  Orages  Givrage  Turbulence  Onde Orograph.  Cendres Volcan.






- Altitude de l'aérodrome : 1306 ft
- Code IATA : ACH


LSZR - Alten Rhein

DERNIER METAR :
  • 280650Z 09002KT 0300 R10/0175U FG VV003 04/04 Q1022 RMK C

METARs EXPIRÉS :
  • 280620Z 07004KT 0700 R10/0700D PRFG OVC008 04/04 Q1022 RMK C
  • 280550Z 09004KT 5000 BKN009 04/04 Q1022 RMK B
  • 280520Z 09004KT 6000 BKN008 05/04 Q1023 RMK B
  • 280450Z 08003KT 6000 OVC007 06/06 Q1023 RMK A
  • 280420Z 13004KT 7000 OVC007 07/07 Q1023 RMK A

TAF TAF LSZR
Valide du 28 à 06h jusqu'au 28 à 15h UTC


280525Z 2806/2815 08004KT 6000 BKN006
BECMG 2806/2809 SCT006
BECMG 2809/2811 CAVOK
ATIS : +41 71 858 51 66



MET'MAP, la Météo Aéronautique d'un coup d'oeil ! - Copyright ORBIFLY Décembre 2007 - Disclaimer

ORBIFLY MET'MAP TEAM :

Programmation & Développement : Alexandra Zaïnal
Sur une idée originale de : Baudouin d'Aumeries
Assistance à la programmation : Marc-Olivier Méhu
Soutien technique & logistique : Manuel Goepfert

Contact : metmap@orbifly.com




SOURCES & CREDITS :

   NOAA